Time;durP1;ratioP1;P1;durP2;ratioP2;P2;SDS_P1;SDS_P2;PMS_P1;PMS_P2;Temp;Humidity;BMP_temperature;BMP_pressure;BME280_temperature;BME280_humidity;BME280_pressure;Samples;Min_cycle;Max_cycle;Signal;HPM_P1;HPM_P2
2024/01/11 00:01:58;;;;;;;21.20;10.52;;;;;;;4.31;36.55;102858.50;5073642;28;20043;-66
2024/01/11 00:04:24;;;;;;;30.70;11.13;;;;;;;4.28;37.31;102858.59;5073440;28;20492;-66
2024/01/11 00:06:50;;;;;;;25.58;9.68;;;;;;;4.27;36.48;102875.44;5071715;28;20124;-66
2024/01/11 00:09:15;;;;;;;33.35;12.75;;;;;;;4.22;36.91;102869.34;5073452;28;20039;-66
2024/01/11 00:11:41;;;;;;;36.37;11.37;;;;;;;4.19;36.34;102872.09;5073212;28;20036;-66
2024/01/11 00:14:06;;;;;;;25.83;11.33;;;;;;;4.16;36.42;102874.84;5073314;28;20033;-66
2024/01/11 00:16:31;;;;;;;21.37;8.30;;;;;;;4.10;36.75;102871.41;5055289;28;20040;-66
2024/01/11 00:18:57;;;;;;;20.90;9.60;;;;;;;4.05;36.95;102873.28;5073184;28;20408;-66
2024/01/11 00:21:22;;;;;;;23.27;9.43;;;;;;;4.01;36.99;102870.75;5073430;28;20093;-66
2024/01/11 00:23:49;;;;;;;27.13;11.20;;;;;;;3.98;38.08;102868.19;5073284;28;20040;-66
2024/01/11 00:26:14;;;;;;;34.00;12.00;;;;;;;3.91;37.37;102869.22;5073268;28;20052;-66
2024/01/11 00:28:40;;;;;;;30.50;11.00;;;;;;;3.91;36.08;102872.75;5072824;28;20036;-66
2024/01/11 00:31:05;;;;;;;25.43;10.40;;;;;;;3.89;37.01;102882.53;5073148;28;20037;-66
2024/01/11 00:33:31;;;;;;;22.83;9.60;;;;;;;3.88;38.07;102888.72;5073157;28;20056;-66
2024/01/11 00:35:56;;;;;;;29.25;10.48;;;;;;;3.85;36.85;102886.16;5073198;28;20041;-65
2024/01/11 00:38:22;;;;;;;25.60;11.00;;;;;;;3.84;37.77;102884.41;5073098;28;20067;-67
2024/01/11 00:40:47;;;;;;;30.40;11.60;;;;;;;3.85;36.82;102894.09;5073408;28;20040;-65
2024/01/11 00:43:12;;;;;;;25.07;9.87;;;;;;;3.85;36.23;102885.31;5071637;28;20040;-66
2024/01/11 00:45:38;;;;;;;30.57;11.03;;;;;;;3.83;36.89;102887.09;5073236;28;20464;-66
2024/01/11 00:48:04;;;;;;;29.57;11.33;;;;;;;3.81;36.40;102884.50;5073031;28;20086;-66
2024/01/11 00:50:30;;;;;;;29.43;10.87;;;;;;;3.80;36.95;102885.38;5073138;28;20043;-66
2024/01/11 00:52:55;;;;;;;27.70;10.30;;;;;;;3.75;37.51;102879.31;5072875;28;20107;-66
2024/01/11 00:55:20;;;;;;;22.67;10.33;;;;;;;3.75;36.89;102883.75;5071542;28;20123;-65
2024/01/11 00:57:46;;;;;;;26.20;11.37;;;;;;;3.72;36.71;102882.03;5066821;28;20053;-66
2024/01/11 01:00:15;;;;;;;28.00;10.13;;;;;;;3.68;38.42;102880.38;5051393;28;20400;-66
2024/01/11 01:02:40;;;;;;;28.97;11.57;;;;;;;3.64;37.23;102876.06;5051387;28;20033;-66
2024/01/11 01:05:06;;;;;;;24.13;10.97;;;;;;;3.67;37.55;102889.22;5051276;28;20469;-65
2024/01/11 01:07:32;;;;;;;22.93;9.73;;;;;;;3.63;37.05;102887.53;5051387;28;20582;-66
2024/01/11 01:09:57;;;;;;;21.97;9.27;;;;;;;3.61;36.44;102899.09;5052479;28;20124;-66
2024/01/11 01:12:24;;;;;;;29.97;10.63;;;;;;;3.59;37.72;102896.47;5051394;28;20413;-66
2024/01/11 01:14:50;;;;;;;32.60;11.57;;;;;;;3.57;37.59;102895.66;5051282;28;20462;-66
2024/01/11 01:17:15;;;;;;;24.70;10.53;;;;;;;3.50;37.29;102888.72;5052565;28;20037;-66
2024/01/11 01:19:41;;;;;;;27.87;11.57;;;;;;;3.51;36.54;102895.78;5054876;28;20040;-68
2024/01/11 01:22:06;;;;;;;24.00;10.83;;;;;;;3.49;38.44;102902.88;5056125;28;20140;-68
2024/01/11 01:24:31;;;;;;;25.43;10.07;;;;;;;3.47;37.15;102899.38;5054952;28;20072;-67
2024/01/11 01:26:57;;;;;;;33.27;11.33;;;;;;;3.47;37.75;102907.34;5069727;28;20028;-65
2024/01/11 01:29:22;;;;;;;20.70;9.20;;;;;;;3.42;37.90;102898.63;5076169;28;20020;-66
2024/01/11 01:31:48;;;;;;;38.10;11.83;;;;;;;3.41;37.24;102910.09;5076136;28;20029;-65
2024/01/11 01:34:14;;;;;;;24.03;9.80;;;;;;;3.40;37.95;102908.38;5068749;28;20487;-66
2024/01/11 01:36:40;;;;;;;24.00;10.43;;;;;;;3.37;37.24;102903.16;5056409;28;20036;-66
2024/01/11 01:39:05;;;;;;;32.83;11.73;;;;;;;3.28;38.63;102887.44;5056169;28;20025;-66
2024/01/11 01:41:31;;;;;;;29.30;11.13;;;;;;;3.28;38.74;102892.75;5054825;28;20056;-66
2024/01/11 01:43:56;;;;;;;26.07;10.20;;;;;;;3.32;38.34;102907.69;5056002;28;20039;-65
2024/01/11 01:46:24;;;;;;;24.90;9.87;;;;;;;3.31;36.70;102913.88;5056134;28;20057;-66
2024/01/11 01:48:54;;;;;;;28.67;10.67;;;;;;;3.30;37.97;102912.13;5056042;28;20028;-65
2024/01/11 01:51:20;;;;;;;27.50;9.50;;;;;;;3.29;37.15;102920.97;5054920;28;20434;-66
2024/01/11 01:53:45;;;;;;;22.00;9.20;;;;;;;3.22;38.81;102914.94;5064542;28;20029;-66
2024/01/11 01:56:11;;;;;;;19.60;9.30;;;;;;;3.27;38.66;102928.06;5055883;28;20489;-66
2024/01/11 01:58:37;;;;;;;28.70;11.17;;;;;;;3.27;37.32;102928.06;5055797;28;20040;-66
2024/01/11 02:01:02;;;;;;;29.83;10.43;;;;;;;3.23;37.34;102921.09;5055759;28;20120;-66
2024/01/11 02:03:28;;;;;;;25.63;10.97;;;;;;;3.22;38.08;102928.16;5054029;28;20115;-66
2024/01/11 02:05:54;;;;;;;37.80;10.80;;;;;;;3.24;37.84;102922.84;5054401;28;20056;-66
2024/01/11 02:08:22;;;;;;;22.97;9.53;;;;;;;3.23;38.87;102937.00;5037868;28;20442;-66
2024/01/11 02:10:47;;;;;;;28.43;10.30;;;;;;;3.22;37.35;102928.16;5055554;28;20082;-65
2024/01/11 02:13:13;;;;;;;32.20;11.53;;;;;;;3.22;37.88;102929.94;5055546;28;20040;-66
2024/01/11 02:15:39;;;;;;;28.23;11.53;;;;;;;3.18;38.52;102929.16;5055367;28;20365;-66
2024/01/11 02:18:04;;;;;;;23.13;9.50;;;;;;;3.18;37.14;102930.91;5055347;28;20040;-67
2024/01/11 02:20:30;;;;;;;24.57;10.97;;;;;;;3.18;36.80;102933.56;5055674;28;20037;-65
2024/01/11 02:22:58;;;;;;;26.47;10.17;;;;;;;3.15;36.99;102934.50;5054093;28;20043;-66
2024/01/11 02:25:24;;;;;;;25.93;9.67;;;;;;;3.16;37.04;102935.34;5037348;28;20437;-66
2024/01/11 02:27:50;;;;;;;32.87;11.03;;;;;;;3.15;37.18;102930.97;5055310;28;20151;-67
2024/01/11 02:30:15;;;;;;;28.07;11.13;;;;;;;3.13;37.29;102930.09;5055041;28;20040;-65
2024/01/11 02:32:44;;;;;;;23.40;10.47;;;;;;;3.14;37.72;102931.88;5055452;28;20412;-66
2024/01/11 02:35:10;;;;;;;28.20;11.27;;;;;;;3.11;38.16;102932.81;5055600;28;20112;-70
2024/01/11 02:37:37;;;;;;;30.43;10.87;;;;;;;3.11;39.11;102927.50;5055251;28;20037;-71
2024/01/11 02:40:03;;;;;;;23.80;10.27;;;;;;;3.11;37.09;102926.63;5055549;28;20033;-71
2024/01/11 02:42:28;;;;;;;27.97;10.13;;;;;;;3.08;38.48;102922.28;5055133;28;20573;-70
2024/01/11 02:44:53;;;;;;;27.53;11.03;;;;;;;3.06;37.92;102912.63;5055007;28;20492;-71
2024/01/11 02:47:19;;;;;;;26.93;11.87;;;;;;;3.09;38.23;102923.16;5055030;28;20035;-71
2024/01/11 02:49:44;;;;;;;22.80;10.87;;;;;;;3.04;37.65;102923.25;5069629;28;20388;-71
2024/01/11 02:52:09;;;;;;;24.90;10.17;;;;;;;3.07;38.49;102930.25;5075000;28;20025;-70
2024/01/11 02:54:35;;;;;;;33.47;10.27;;;;;;;3.05;38.11;102924.97;5073615;28;20515;-71
2024/01/11 02:57:00;;;;;;;23.43;11.03;;;;;;;3.03;38.35;102918.84;5073528;28;20029;-70
2024/01/11 02:59:25;;;;;;;19.17;9.70;;;;;;;3.00;37.82;102916.25;5074869;28;20038;-71
2024/01/11 03:01:51;;;;;;;25.90;10.20;;;;;;;2.99;37.22;102916.31;5074985;28;20028;-71
2024/01/11 03:04:16;;;;;;;28.33;11.13;;;;;;;2.97;37.91;102896.91;5061520;28;20505;-71
2024/01/11 03:06:42;;;;;;;23.57;10.20;;;;;;;2.97;38.13;102907.50;5053972;28;20029;-71
2024/01/11 03:09:07;;;;;;;26.00;10.80;;;;;;;2.97;38.44;102907.50;5055932;28;20123;-71
2024/01/11 03:11:33;;;;;;;25.03;11.43;;;;;;;2.90;37.56;102907.59;5056215;28;20053;-71
2024/01/11 03:13:58;;;;;;;24.27;10.17;;;;;;;2.92;38.64;102913.78;5055879;28;20116;-71
2024/01/11 03:16:23;;;;;;;31.70;10.83;;;;;;;2.91;39.26;102917.31;5055213;28;20025;-71
2024/01/11 03:18:49;;;;;;;27.63;11.37;;;;;;;2.88;38.10;102916.47;5054524;28;20108;-71
2024/01/11 03:21:15;;;;;;;23.80;9.93;;;;;;;2.90;37.17;102922.66;5054333;28;20457;-71
2024/01/11 03:23:40;;;;;;;24.43;10.90;;;;;;;2.89;38.92;102921.75;5054509;28;20650;-70
2024/01/11 03:26:21;;;;;;;23.20;10.33;;;;;;;2.89;37.66;102921.75;5054228;28;20596;-71
2024/01/11 03:28:46;;;;;;;30.33;10.70;;;;;;;2.87;38.44;102923.56;5054436;28;20029;-71
2024/01/11 03:31:11;;;;;;;27.37;11.77;;;;;;;2.83;39.21;102921.00;5054660;28;20552;-71
2024/01/11 03:33:37;;;;;;;20.07;9.87;;;;;;;2.88;39.08;102935.00;5054567;28;20040;-71
2024/01/11 03:36:09;;;;;;;30.27;10.47;;;;;;;2.82;37.62;102917.47;5054496;28;20037;-71
2024/01/11 03:38:35;;;;;;;29.55;11.32;;;;;;;2.82;38.59;102919.28;5036800;28;20025;-71
2024/01/11 03:41:00;;;;;;;30.87;10.73;;;;;;;2.79;39.04;102914.88;5053663;28;20036;-71
2024/01/11 03:43:26;;;;;;;32.83;10.50;;;;;;;2.76;38.72;102911.44;5053071;28;20040;-71
2024/01/11 03:45:51;;;;;;;31.97;10.93;;;;;;;2.76;37.69;102912.28;5054531;28;20056;-66
2024/01/11 03:48:16;;;;;;;22.40;9.40;;;;;;;2.74;38.68;102919.38;5054311;28;20036;-65
2024/01/11 03:50:42;;;;;;;27.73;10.53;;;;;;;2.75;38.33;102921.16;5054597;28;20037;-65
2024/01/11 03:53:07;;;;;;;21.33;10.40;;;;;;;2.77;38.48;102918.47;5054234;28;20203;-66
2024/01/11 03:55:33;;;;;;;27.43;11.30;;;;;;;2.75;38.18;102910.56;5053908;28;20029;-66
2024/01/11 03:57:58;;;;;;;26.73;11.67;;;;;;;2.73;38.69;102912.38;5053614;28;20404;-66
2024/01/11 04:00:24;;;;;;;31.87;10.43;;;;;;;2.77;38.48;102916.69;5053653;28;20045;-66
2024/01/11 04:02:49;;;;;;;31.13;11.23;;;;;;;2.77;37.70;102927.28;5052249;28;20040;-66
2024/01/11 04:05:15;;;;;;;27.17;10.60;;;;;;;2.78;37.54;102922.84;5053395;28;20112;-66
2024/01/11 04:07:41;;;;;;;22.20;10.00;;;;;;;2.76;39.29;102914.94;5053416;28;20037;-66
2024/01/11 04:10:08;;;;;;;27.20;11.00;;;;;;;2.78;37.55;102928.16;5053520;28;20033;-66
2024/01/11 04:12:33;;;;;;;26.97;9.57;;;;;;;2.76;38.28;102930.81;5053355;28;20021;-66
2024/01/11 04:14:59;;;;;;;23.73;10.53;;;;;;;2.74;38.16;102929.97;5053353;28;20037;-66
2024/01/11 04:17:24;;;;;;;22.77;10.10;;;;;;;2.74;37.56;102937.91;5053279;28;20028;-65
2024/01/11 04:19:49;;;;;;;21.43;10.17;;;;;;;2.72;38.12;102936.19;5053188;28;20412;-66
2024/01/11 04:22:15;;;;;;;27.97;12.23;;;;;;;2.71;38.61;102932.66;5053532;28;20059;-66
2024/01/11 04:24:42;;;;;;;25.97;10.83;;;;;;;2.70;37.89;102941.53;5053128;28;20049;-66
2024/01/11 04:27:08;;;;;;;25.23;11.40;;;;;;;2.67;37.42;102946.88;5053486;28;20037;-66
2024/01/11 04:29:33;;;;;;;29.30;10.77;;;;;;;2.60;37.62;102933.75;5053398;28;20052;-68
2024/01/11 04:31:58;;;;;;;20.97;10.10;;;;;;;2.66;38.86;102957.47;5053243;28;20037;-66
2024/01/11 04:34:24;;;;;;;25.47;11.50;;;;;;;2.63;38.89;102950.44;5053011;28;20541;-66
2024/01/11 04:36:49;;;;;;;26.83;11.10;;;;;;;2.64;38.65;102953.97;5051664;28;20033;-66
2024/01/11 04:39:15;;;;;;;32.47;11.93;;;;;;;2.60;37.57;102947.84;5053244;28;20029;-67
2024/01/11 04:41:40;;;;;;;23.67;9.77;;;;;;;2.57;38.50;102950.56;5051640;28;20037;-66
2024/01/11 04:44:06;;;;;;;28.67;11.93;;;;;;;2.57;37.69;102950.56;5034984;28;20040;-66
2024/01/11 04:46:31;;;;;;;30.10;12.37;;;;;;;2.58;39.63;102952.31;5051662;28;20044;-66
2024/01/11 04:48:56;;;;;;;27.63;10.20;;;;;;;2.57;37.83;102950.56;5052755;28;20064;-66
2024/01/11 04:51:22;;;;;;;35.17;13.07;;;;;;;2.54;37.65;102940.03;5051427;28;20048;-66
2024/01/11 04:53:47;;;;;;;27.40;10.53;;;;;;;2.54;38.70;102957.69;5052702;28;20493;-66
2024/01/11 04:56:16;;;;;;;27.10;11.20;;;;;;;2.56;38.45;102963.81;5052841;28;20079;-67
2024/01/11 04:58:45;;;;;;;27.10;11.27;;;;;;;2.55;38.09;102976.16;5052729;28;20037;-67
2024/01/11 05:01:14;;;;;;;25.20;10.73;;;;;;;2.54;38.79;102973.56;5052857;28;20106;-66
2024/01/11 05:03:39;;;;;;;31.97;11.90;;;;;;;2.53;37.80;102972.69;5052439;28;20500;-66
2024/01/11 05:06:06;;;;;;;28.90;11.17;;;;;;;2.53;38.84;102964.75;5052602;28;20035;-66
2024/01/11 05:08:31;;;;;;;26.60;11.17;;;;;;;2.43;38.85;102952.56;5053028;28;20056;-66
2024/01/11 05:10:56;;;;;;;22.40;10.67;;;;;;;2.52;39.00;102975.34;5052446;28;20052;-66
2024/01/11 05:13:22;;;;;;;27.53;11.30;;;;;;;2.52;38.37;102983.25;5052853;28;20421;-66
2024/01/11 05:15:47;;;;;;;27.77;10.90;;;;;;;2.47;38.57;102978.06;5051512;28;20550;-66
2024/01/11 05:18:13;;;;;;;29.67;10.63;;;;;;;2.50;39.42;102990.34;5051419;28;20087;-66
2024/01/11 05:20:39;;;;;;;33.33;12.23;;;;;;;2.45;39.39;102984.28;5052680;28;20032;-66
2024/01/11 05:23:04;;;;;;;26.20;10.53;;;;;;;2.39;38.30;102990.53;5051068;28;20029;-66
2024/01/11 05:25:39;;;;;;;26.93;10.97;;;;;;;2.46;38.31;103000.09;5034520;28;20053;-67
2024/01/11 05:28:04;;;;;;;28.80;12.00;;;;;;;2.44;38.19;102985.16;5051305;28;20036;-66
2024/01/11 05:30:30;;;;;;;33.40;13.50;;;;;;;2.49;38.72;102994.78;5052603;28;20029;-66
2024/01/11 05:32:55;;;;;;;36.77;13.37;;;;;;;2.50;38.39;102991.25;5052528;28;20029;-66
2024/01/11 05:35:23;;;;;;;31.87;11.13;;;;;;;2.53;39.56;102998.25;5052434;28;20404;-66
2024/01/11 05:37:49;;;;;;;30.13;11.33;;;;;;;2.52;38.24;103000.00;5052397;28;20508;-66
2024/01/11 05:40:14;;;;;;;33.37;12.23;;;;;;;2.51;38.26;103008.88;5050992;28;20078;-66
2024/01/11 05:42:40;;;;;;;20.30;10.27;;;;;;;2.50;39.11;103017.69;5052261;28;20053;-66
2024/01/11 05:45:06;;;;;;;36.27;11.67;;;;;;;2.48;39.17;103008.91;5052426;28;20115;-67
2024/01/11 05:47:31;;;;;;;32.30;11.50;;;;;;;2.55;38.52;103007.91;5050982;28;20060;-66
2024/01/11 05:49:57;;;;;;;30.37;11.53;;;;;;;2.60;39.21;103018.41;5051589;28;20408;-67
2024/01/11 05:52:22;;;;;;;28.97;12.57;;;;;;;2.61;40.05;103015.75;5052761;28;20462;-66
2024/01/11 05:54:47;;;;;;;28.67;11.37;;;;;;;2.65;38.93;103017.41;5051111;28;20034;-67
2024/01/11 05:57:13;;;;;;;35.53;12.63;;;;;;;2.65;39.13;103017.41;5050902;28;20043;-66
2024/01/11 05:59:45;;;;;;;32.23;12.30;;;;;;;2.72;39.42;103027.03;5052192;28;20029;-66
2024/01/11 06:02:12;;;;;;;29.13;12.55;;;;;;;2.73;38.56;103015.56;5051993;28;20025;-66
2024/01/11 06:04:37;;;;;;;45.10;14.40;;;;;;;2.78;38.47;103024.28;5061792;28;20515;-67
2024/01/11 06:07:02;;;;;;;34.50;13.47;;;;;;;2.80;38.92;103027.75;5074624;28;20036;-71
2024/01/11 06:09:28;;;;;;;28.90;12.30;;;;;;;2.80;39.26;103034.81;5076294;28;20565;-71
2024/01/11 06:11:53;;;;;;;33.67;12.03;;;;;;;2.78;39.29;103040.16;5075788;28;20060;-70
2024/01/11 06:14:19;;;;;;;28.20;11.13;;;;;;;2.77;39.97;103035.75;5075897;28;20037;-71
2024/01/11 06:16:44;;;;;;;29.03;11.67;;;;;;;2.77;38.71;103038.41;5075549;28;20482;-71
2024/01/11 06:19:09;;;;;;;35.37;13.20;;;;;;;2.75;38.51;103039.31;5075460;28;20037;-71
2024/01/11 06:21:35;;;;;;;39.70;13.37;;;;;;;2.75;39.54;103037.56;5075565;28;20032;-71
2024/01/11 06:24:00;;;;;;;30.90;11.37;;;;;;;2.73;40.06;103042.00;5075267;28;20036;-70
2024/01/11 06:26:26;;;;;;;28.73;12.00;;;;;;;2.70;38.73;103036.75;5057606;28;20052;-71
2024/01/11 06:28:51;;;;;;;31.20;11.27;;;;;;;2.68;39.57;103048.28;5075480;28;20511;-71
2024/01/11 06:31:17;;;;;;;27.67;12.13;;;;;;;2.62;39.73;103038.66;5075591;28;20484;-71
2024/01/11 06:33:43;;;;;;;31.90;11.67;;;;;;;2.61;39.28;103059.84;5075426;28;20506;-71
2024/01/11 06:36:09;;;;;;;29.30;11.73;;;;;;;2.57;39.91;103052.84;5074479;28;20037;-71
2024/01/11 06:38:34;;;;;;;30.73;10.17;;;;;;;2.53;39.06;103062.59;5074265;28;20039;-72
2024/01/11 06:41:00;;;;;;;27.60;11.73;;;;;;;2.50;39.81;103065.28;5074110;28;20400;-71
2024/01/11 06:43:25;;;;;;;35.37;11.87;;;;;;;2.47;39.09;103060.03;5075315;28;20029;-71
2024/01/11 06:45:50;;;;;;;34.33;13.33;;;;;;;2.43;38.21;103062.78;5094119;28;20040;-71
2024/01/11 06:48:16;;;;;;;35.03;12.87;;;;;;;2.46;38.99;103068.88;5094389;28;20124;-70
2024/01/11 06:50:41;;;;;;;37.80;13.10;;;;;;;2.44;39.89;103049.50;5092924;28;20044;-71
2024/01/11 06:53:07;;;;;;;38.67;13.70;;;;;;;2.43;38.46;103062.78;5095091;28;20036;-71
2024/01/11 06:55:32;;;;;;;38.00;12.50;;;;;;;2.39;38.45;103046.06;5094854;28;20463;-71
2024/01/11 06:57:58;;;;;;;27.73;10.93;;;;;;;2.40;38.10;103058.41;5095131;28;20043;-69
2024/01/11 07:00:24;;;;;;;32.17;13.43;;;;;;;2.36;39.58;103067.25;5094825;28;20127;-70
2024/01/11 07:02:49;;;;;;;46.73;13.80;;;;;;;2.37;38.65;103062.84;5093681;28;20151;-70
2024/01/11 07:05:15;;;;;;;31.87;12.90;;;;;;;2.36;39.90;103072.56;5093391;28;20062;-69
2024/01/11 07:07:40;;;;;;;33.33;13.57;;;;;;;2.37;38.47;103062.84;5094928;28;20060;-70
2024/01/11 07:10:06;;;;;;;41.20;14.00;;;;;;;2.37;40.02;103055.81;5094951;28;20093;-70
2024/01/11 07:12:32;;;;;;;38.60;14.43;;;;;;;2.37;38.37;103049.63;5093813;28;20060;-70
2024/01/11 07:14:57;;;;;;;40.73;15.30;;;;;;;2.39;39.25;103056.66;5095620;28;20046;-69
2024/01/11 07:17:23;;;;;;;33.50;12.83;;;;;;;2.40;38.36;103055.75;5093859;28;20492;-70
2024/01/11 07:19:48;;;;;;;38.10;14.77;;;;;;;2.40;39.20;103058.41;5093270;28;20123;-70
2024/01/11 07:22:14;;;;;;;27.13;12.13;;;;;;;2.39;39.24;103058.41;5095177;28;20023;-70
2024/01/11 07:24:39;;;;;;;33.20;12.73;;;;;;;2.39;39.54;103061.94;5094299;28;20048;-70
2024/01/11 07:27:05;;;;;;;32.80;13.20;;;;;;;2.36;39.20;103051.41;5094848;28;20032;-70
2024/01/11 07:29:31;;;;;;;28.67;12.70;;;;;;;2.36;39.29;103056.69;5094721;28;20035;-70
2024/01/11 07:31:56;;;;;;;36.10;13.03;;;;;;;2.34;39.13;103063.78;5093124;28;20399;-70
2024/01/11 07:34:22;;;;;;;28.90;12.70;;;;;;;2.32;39.77;103076.13;5093870;28;20490;-70
2024/01/11 07:36:47;;;;;;;34.00;13.03;;;;;;;2.30;39.88;103062.06;5076145;28;20020;-70
2024/01/11 07:39:12;;;;;;;35.57;14.50;;;;;;;2.26;39.00;103063.84;5094143;28;20020;-70
2024/01/11 07:41:38;;;;;;;27.47;12.67;;;;;;;2.28;40.02;103059.44;5094134;28;20031;-71
2024/01/11 07:44:03;;;;;;;52.40;16.10;;;;;;;2.28;40.02;103063.84;5093968;28;20042;-70
2024/01/11 07:46:29;;;;;;;49.17;16.07;;;;;;;2.25;39.36;103059.50;5094429;28;20036;-70
2024/01/11 07:48:54;;;;;;;42.90;14.53;;;;;;;2.26;38.11;103055.94;5094347;28;20028;-70
2024/01/11 07:51:20;;;;;;;45.17;14.73;;;;;;;2.26;38.88;103069.16;5094524;28;20028;-71
2024/01/11 07:53:45;;;;;;;49.20;16.77;;;;;;;2.26;38.59;103070.94;5094409;28;20024;-70
2024/01/11 07:56:10;;;;;;;36.60;14.73;;;;;;;2.15;38.77;103057.00;5094006;28;20031;-70
2024/01/11 07:58:37;;;;;;;36.73;13.93;;;;;;;2.24;39.76;103072.72;5091915;28;20058;-70
2024/01/11 08:01:03;;;;;;;36.60;14.37;;;;;;;2.22;39.14;103075.38;5092881;28;20039;-70
2024/01/11 08:03:29;;;;;;;29.40;14.63;;;;;;;2.23;38.20;103076.28;5093964;28;20124;-70
2024/01/11 08:05:55;;;;;;;30.53;15.23;;;;;;;2.22;39.82;103074.50;5094078;28;20048;-70
2024/01/11 08:08:21;;;;;;;41.40;14.40;;;;;;;2.26;39.29;103089.44;5093967;28;20047;-71
2024/01/11 08:10:48;;;;;;;31.03;13.90;;;;;;;2.30;40.06;103104.34;5094033;28;20028;-70
2024/01/11 08:13:14;;;;;;;35.70;14.13;;;;;;;2.35;39.66;103102.53;5094122;28;20052;-70
2024/01/11 08:15:39;;;;;;;34.57;14.00;;;;;;;2.43;39.48;103105.06;5094020;28;20104;-70
2024/01/11 08:18:05;;;;;;;35.67;14.40;;;;;;;2.51;40.05;103104.06;5093959;28;20460;-71
2024/01/11 08:20:30;;;;;;;37.83;13.70;;;;;;;2.59;40.56;103115.41;5093891;28;20024;-70
2024/01/11 08:22:56;;;;;;;32.17;12.57;;;;;;;2.59;38.87;103086.31;5093354;28;20039;-70
2024/01/11 08:25:22;;;;;;;41.27;14.73;;;;;;;2.71;39.87;103104.63;5092104;28;20044;-65
2024/01/11 08:27:48;;;;;;;35.90;15.37;;;;;;;2.79;39.34;103102.75;5092906;28;20059;-66
2024/01/11 08:30:14;;;;;;;34.27;14.57;;;;;;;2.86;40.36;103096.47;5093534;28;20040;-65
2024/01/11 08:32:41;;;;;;;32.57;13.07;;;;;;;2.92;39.87;103100.78;5093711;28;20506;-65
2024/01/11 08:35:09;;;;;;;45.80;14.70;;;;;;;2.96;39.32;103083.09;5093214;28;20123;-65
2024/01/11 08:37:35;;;;;;;40.67;14.23;;;;;;;3.01;39.62;103086.53;5092187;28;20036;-65
2024/01/11 08:40:00;;;;;;;39.33;14.17;;;;;;;3.05;39.57;103085.56;5093167;28;20028;-65
2024/01/11 08:42:26;;;;;;;28.80;14.13;;;;;;;3.09;40.10;103081.97;5093262;28;20056;-65
2024/01/11 08:44:52;;;;;;;37.93;13.53;;;;;;;3.18;40.67;103081.84;5093149;28;20119;-66
2024/01/11 08:47:17;;;;;;;37.60;16.07;;;;;;;3.24;40.32;103074.63;5093328;28;20109;-65
2024/01/11 08:49:43;;;;;;;35.37;14.33;;;;;;;3.30;39.87;103066.59;5093297;28;20032;-65
2024/01/11 08:52:08;;;;;;;27.90;13.20;;;;;;;3.35;39.53;103079.75;5093120;28;20039;-65
2024/01/11 08:54:34;;;;;;;36.30;13.33;;;;;;;3.41;39.96;103079.63;5091585;28;20036;-65
2024/01/11 08:56:59;;;;;;;40.57;14.57;;;;;;;3.46;39.35;103083.09;5093081;28;20119;-65
2024/01/11 08:59:25;;;;;;;36.10;14.10;;;;;;;3.52;40.71;103082.94;5092900;28;20046;-65
2024/01/11 09:01:51;;;;;;;39.13;14.50;;;;;;;3.62;39.26;103073.94;5092917;28;20039;-67
2024/01/11 09:04:17;;;;;;;41.93;14.90;;;;;;;3.71;39.52;103079.06;5074664;28;20040;-65
2024/01/11 09:06:43;;;;;;;38.70;15.77;;;;;;;3.81;38.63;103075.31;5093002;28;20036;-65
2024/01/11 09:09:10;;;;;;;41.03;14.10;;;;;;;3.92;38.68;103072.44;5092861;28;20110;-65
2024/01/11 09:11:35;;;;;;;38.83;15.67;;;;;;;4.03;40.08;103076.63;5093001;28;20040;-65
2024/01/11 09:14:02;;;;;;;43.40;16.00;;;;;;;4.16;38.50;103082.50;5092946;28;20028;-66
2024/01/11 09:16:28;;;;;;;37.13;14.07;;;;;;;4.26;38.54;103088.50;5092672;28;20028;-65
2024/01/11 09:18:53;;;;;;;38.93;15.33;;;;;;;4.33;39.36;103087.44;5092763;28;20036;-65
2024/01/11 09:21:19;;;;;;;34.20;14.73;;;;;;;4.41;40.41;103082.88;5092887;28;20094;-66
2024/01/11 09:23:44;;;;;;;39.57;15.90;;;;;;;4.48;39.71;103087.13;5092687;28;20032;-65
2024/01/11 09:26:10;;;;;;;35.57;14.97;;;;;;;4.55;40.18;103086.09;5074348;28;20040;-65
2024/01/11 09:28:35;;;;;;;33.90;14.37;;;;;;;4.62;40.50;103080.59;5093073;28;20213;-65
2024/01/11 09:31:01;;;;;;;37.35;13.75;;;;;;;4.69;39.84;103089.28;5091706;28;20491;-65
2024/01/11 09:33:27;;;;;;;42.30;15.77;;;;;;;4.77;39.45;103097.94;5092591;28;20032;-65
2024/01/11 09:35:53;;;;;;;37.77;14.23;;;;;;;4.85;40.68;103103.06;5092917;28;20085;-65
2024/01/11 09:38:18;;;;;;;36.77;14.87;;;;;;;4.94;40.14;103111.66;5093031;28;20032;-65
2024/01/11 09:40:43;;;;;;;43.92;16.63;;;;;;;5.02;39.73;103107.06;5094065;28;20560;-65
2024/01/11 09:43:09;;;;;;;41.33;14.75;;;;;;;5.16;39.24;103117.34;5095082;28;20060;-66
2024/01/11 09:45:36;;;;;;;43.40;15.67;;;;;;;5.28;40.61;103101.94;5096701;28;20040;-65
2024/01/11 09:48:03;;;;;;;38.15;15.27;;;;;;;5.49;38.96;103108.50;5096590;28;20039;-65
2024/01/11 09:50:29;;;;;;;38.70;16.15;;;;;;;5.69;38.94;103107.97;5097035;28;20132;-65
2024/01/11 09:52:55;;;;;;;37.58;16.10;;;;;;;5.90;38.97;103101.19;5096544;28;20514;-65
2024/01/11 09:55:20;;;;;;;37.28;15.38;;;;;;;6.14;38.57;103109.34;5095837;28;20031;-65
2024/01/11 09:57:47;;;;;;;35.42;15.88;;;;;;;6.39;39.90;103105.03;5096270;28;20036;-65
2024/01/11 10:00:33;;;;;;;32.70;14.95;;;;;;;6.70;39.21;103117.41;5096129;28;20119;-65
2024/01/11 10:02:58;;;;;;;37.17;14.48;;;;;;;6.96;38.76;103113.00;5094240;28;20502;-65
2024/01/11 10:05:24;;;;;;;39.92;16.15;;;;;;;7.25;39.68;103122.69;5094679;28;20028;-65
2024/01/11 10:07:50;;;;;;;37.97;16.52;;;;;;;7.53;38.58;103112.84;5096030;28;20050;-66
2024/01/11 10:10:15;;;;;;;35.42;15.55;;;;;;;7.85;38.26;103110.78;5094850;28;20037;-66
2024/01/11 10:12:40;;;;;;;40.25;15.38;;;;;;;8.15;38.01;103129.22;5094695;28;20043;-66
2024/01/11 10:15:10;;;;;;;35.70;15.13;;;;;;;8.46;38.98;103112.94;5094587;28;20442;-66
2024/01/11 10:17:36;;;;;;;44.78;18.13;;;;;;;8.78;38.36;103109.88;5095917;28;20123;-66
2024/01/11 10:20:03;;;;;;;31.95;16.20;;;;;;;9.05;38.21;103102.53;5095405;28;20047;-66
2024/01/11 10:22:28;;;;;;;42.03;16.50;;;;;;;9.43;37.95;103108.94;5095811;28;20058;-66
2024/01/11 10:25:13;;;;;;;36.78;15.88;;;;;;;9.78;37.55;103100.22;5095944;28;20499;-66
2024/01/11 10:27:43;;;;;;;43.35;16.75;;;;;;;10.08;37.63;103100.66;5095740;28;20126;-66
2024/01/11 10:30:10;;;;;;;38.10;16.50;;;;;;;10.34;37.47;103105.72;5095939;28;20062;-67
2024/01/11 10:32:35;;;;;;;30.33;14.73;;;;;;;10.58;36.93;103111.72;5095892;28;20028;-66
2024/01/11 10:35:04;;;;;;;38.67;17.08;;;;;;;10.78;37.04;103106.25;5095476;28;20568;-67
2024/01/11 10:37:32;;;;;;;40.80;17.25;;;;;;;11.03;36.67;103111.28;5095857;28;20032;-66
2024/01/11 10:39:58;;;;;;;40.47;16.73;;;;;;;11.22;37.28;103113.94;5095674;28;20036;-66
2024/01/11 10:42:26;;;;;;;36.53;16.30;;;;;;;11.40;36.43;103115.69;5077552;28;20036;-67
2024/01/11 10:44:55;;;;;;;33.22;15.82;;;;;;;11.57;36.06;103097.75;5094421;28;20139;-67
2024/01/11 10:47:22;;;;;;;36.65;17.15;;;;;;;11.75;36.75;103097.78;5095732;28;20081;-67
2024/01/11 10:49:50;;;;;;;35.92;16.67;;;;;;;11.91;35.66;103099.56;5095152;28;20090;-67
2024/01/11 10:52:21;;;;;;;36.85;15.68;;;;;;;12.07;36.35;103102.28;5094753;28;20081;-66
2024/01/11 10:54:47;;;;;;;39.05;17.02;;;;;;;12.18;35.45;103092.69;5093787;28;20032;-67
2024/01/11 10:57:13;;;;;;;37.50;16.88;;;;;;;12.31;35.67;103090.19;5095124;28;20381;-67
2024/01/11 10:59:39;;;;;;;39.10;17.08;;;;;;;12.45;35.75;103108.28;5094948;28;20567;-67
2024/01/11 11:02:11;;;;;;;33.17;15.38;;;;;;;12.53;35.52;103103.31;5094871;28;20511;-66
2024/01/11 11:04:38;;;;;;;34.00;14.52;;;;;;;12.61;35.01;103111.81;5093334;28;20040;-67
2024/01/11 11:07:07;;;;;;;43.20;15.90;;;;;;;12.66;35.08;103120.50;5093711;28;20490;-67
2024/01/11 11:09:34;;;;;;;32.60;15.73;;;;;;;12.68;35.31;103113.19;5093889;28;20046;-66
2024/01/11 11:12:00;;;;;;;36.00;14.98;;;;;;;12.77;35.32;103112.69;5095262;28;20031;-67